createdAt,value
2023-02-18T00:01:50.749Z,10.55
2023-02-18T00:04:33.247Z,10.62
2023-02-18T00:10:02.479Z,10.53
2023-02-18T00:12:38.680Z,10.55
2023-02-18T00:15:16.442Z,10.55
2023-02-18T00:17:58.261Z,10.56
2023-02-18T00:23:43.586Z,10.59
2023-02-18T00:26:32.168Z,10.64
2023-02-18T00:32:34.491Z,10.57
2023-02-18T00:35:30.227Z,10.53
2023-02-18T00:41:20.968Z,10.62
2023-02-18T00:44:02.195Z,10.72
2023-02-18T00:46:48.682Z,10.59
2023-02-18T00:52:19.169Z,10.60
2023-02-18T00:55:16.713Z,10.62
2023-02-18T00:58:11.845Z,10.58
2023-02-18T01:00:53.639Z,10.47
2023-02-18T01:03:38.405Z,10.50
2023-02-18T01:06:13.610Z,10.53
2023-02-18T01:08:46.673Z,10.48
2023-02-18T01:11:32.743Z,10.59
2023-02-18T01:14:00.995Z,10.59
2023-02-18T01:16:37.485Z,10.53
2023-02-18T01:19:17.754Z,10.60
2023-02-18T01:21:54.742Z,10.61
2023-02-18T01:24:32.241Z,10.57
2023-02-18T01:27:04.246Z,10.55
2023-02-18T01:29:32.984Z,10.54
2023-02-18T01:32:07.686Z,10.62
2023-02-18T01:34:43.217Z,10.58
2023-02-18T01:37:24.198Z,10.52
2023-02-18T01:40:07.233Z,10.42
2023-02-18T01:42:46.785Z,10.32
2023-02-18T01:46:03.698Z,10.32
2023-02-18T01:48:48.141Z,10.36
2023-02-18T01:51:22.268Z,10.26
2023-02-18T01:54:18.517Z,10.47
2023-02-18T01:57:20.973Z,10.32
2023-02-18T01:59:59.306Z,10.26
2023-02-18T02:02:30.305Z,10.39
2023-02-18T02:05:04.871Z,10.29
2023-02-18T02:07:31.785Z,10.17
2023-02-18T02:10:00.625Z,10.18
2023-02-18T02:12:45.385Z,10.17
2023-02-18T02:15:45.655Z,10.20
2023-02-18T02:18:25.838Z,10.31
2023-02-18T02:21:29.316Z,10.15
2023-02-18T02:24:49.209Z,10.07
2023-02-18T02:27:18.500Z,10.02
2023-02-18T02:29:54.942Z,9.15
2023-02-18T02:32:41.347Z,8.55
2023-02-18T02:35:24.203Z,7.89
2023-02-18T02:37:59.740Z,7.61
2023-02-18T02:40:41.458Z,7.55
2023-02-18T02:43:40.798Z,7.84
2023-02-18T02:46:14.033Z,7.50
2023-02-18T02:48:47.630Z,7.61
2023-02-18T02:51:50.210Z,7.45
2023-02-18T02:54:43.665Z,7.44
2023-02-18T03:00:17.947Z,7.76
2023-02-18T03:03:16.722Z,7.71
2023-02-18T03:06:28.680Z,7.94
2023-02-18T03:12:27.527Z,8.35
2023-02-18T03:15:24.054Z,8.71
2023-02-18T03:18:18.256Z,9.03
2023-02-18T03:21:01.686Z,9.34
2023-02-18T03:23:40.061Z,9.38
2023-02-18T03:26:11.737Z,9.63
2023-02-18T03:28:55.000Z,9.67
2023-02-18T03:31:26.377Z,9.69
2023-02-18T03:34:12.462Z,9.66
2023-02-18T03:36:47.255Z,9.44
2023-02-18T03:39:23.725Z,9.56
2023-02-18T03:42:03.305Z,9.17
2023-02-18T03:44:31.858Z,9.11
2023-02-18T03:46:58.502Z,9.31
2023-02-18T03:49:30.886Z,8.94
2023-02-18T03:52:01.073Z,8.84
2023-02-18T03:54:28.137Z,8.63
2023-02-18T03:56:54.751Z,8.43
2023-02-18T03:59:22.579Z,8.23
2023-02-18T04:01:56.774Z,8.27
2023-02-18T04:04:23.478Z,8.30
2023-02-18T04:06:50.132Z,8.15
2023-02-18T04:09:17.172Z,7.89
2023-02-18T04:11:48.073Z,7.86
2023-02-18T04:14:15.286Z,7.88
2023-02-18T04:16:43.260Z,8.07
2023-02-18T04:19:10.880Z,8.07
2023-02-18T04:24:30.515Z,8.33
2023-02-18T04:26:57.389Z,8.30
2023-02-18T04:29:25.022Z,8.70
2023-02-18T04:31:54.024Z,8.63
2023-02-18T04:34:20.870Z,8.71
2023-02-18T04:36:50.490Z,8.83
2023-02-18T04:39:23.465Z,8.71
2023-02-18T04:42:01.385Z,8.63
2023-02-18T04:44:31.193Z,8.67
2023-02-18T04:47:06.461Z,8.66
2023-02-18T04:49:33.636Z,8.87
2023-02-18T04:52:02.993Z,8.65
2023-02-18T04:54:47.520Z,8.57
2023-02-18T04:57:14.090Z,8.51
2023-02-18T04:59:44.335Z,8.66
2023-02-18T05:02:10.970Z,8.84
2023-02-18T05:04:43.721Z,8.75
2023-02-18T05:07:10.868Z,8.72
2023-02-18T05:09:42.908Z,8.72
2023-02-18T05:12:11.951Z,8.65
2023-02-18T05:14:40.103Z,8.57
2023-02-18T05:17:09.812Z,8.77
2023-02-18T05:19:52.251Z,8.90
2023-02-18T05:22:22.629Z,9.10
2023-02-18T05:24:56.950Z,9.30
2023-02-18T05:27:26.971Z,9.16
2023-02-18T05:29:58.963Z,9.16
2023-02-18T05:32:28.744Z,9.30
2023-02-18T05:34:55.560Z,9.30
2023-02-18T05:37:22.195Z,9.26
2023-02-18T05:39:59.864Z,9.33
2023-02-18T05:42:35.504Z,9.37
2023-02-18T05:45:02.325Z,9.38
2023-02-18T05:47:35.290Z,9.49
2023-02-18T05:50:05.697Z,9.48
2023-02-18T05:52:43.958Z,9.36
2023-02-18T05:55:11.894Z,9.35
2023-02-18T05:57:41.852Z,9.26
2023-02-18T06:00:09.049Z,9.26
2023-02-18T06:02:36.110Z,9.33
2023-02-18T06:05:03.436Z,9.35
2023-02-18T06:07:38.869Z,9.25
2023-02-18T06:10:06.654Z,9.13
2023-02-18T06:12:33.191Z,9.01
2023-02-18T06:14:59.818Z,8.49
2023-02-18T06:17:26.353Z,8.33
2023-02-18T06:19:52.915Z,8.02
2023-02-18T06:22:19.463Z,7.79
2023-02-18T06:24:49.254Z,7.36
2023-02-18T06:27:27.786Z,7.07
2023-02-18T06:29:56.442Z,6.90
2023-02-18T06:32:39.774Z,6.93
2023-02-18T06:35:06.672Z,7.03
2023-02-18T06:37:37.550Z,6.91
2023-02-18T06:40:10.462Z,6.90
2023-02-18T06:42:38.174Z,6.76
2023-02-18T06:45:16.976Z,6.33
2023-02-18T06:47:43.566Z,5.92
2023-02-18T06:50:16.072Z,5.98
2023-02-18T06:52:44.894Z,6.26
2023-02-18T06:55:19.872Z,6.52
2023-02-18T06:57:52.081Z,6.77
2023-02-18T07:00:19.034Z,6.74
2023-02-18T07:02:45.727Z,6.59
2023-02-18T07:05:15.317Z,6.66
2023-02-18T07:07:42.136Z,6.54
2023-02-18T07:10:15.346Z,6.50
2023-02-18T07:12:46.356Z,6.69
2023-02-18T07:15:16.380Z,6.94
2023-02-18T07:17:43.021Z,7.14
2023-02-18T07:20:17.439Z,7.26
2023-02-18T07:22:47.822Z,7.31
2023-02-18T07:25:14.921Z,7.16
2023-02-18T07:27:52.714Z,7.01
2023-02-18T07:30:24.588Z,7.09
2023-02-18T07:32:54.737Z,7.11
2023-02-18T07:35:22.229Z,7.07
2023-02-18T07:37:55.680Z,7.00
2023-02-18T07:40:22.597Z,6.99
2023-02-18T07:42:49.546Z,6.87
2023-02-18T07:45:24.778Z,6.76
2023-02-18T07:47:51.440Z,6.94
2023-02-18T07:50:20.835Z,7.19
2023-02-18T07:52:49.832Z,6.77
2023-02-18T07:55:17.755Z,6.46
2023-02-18T07:57:44.335Z,6.46
2023-02-18T08:00:11.423Z,6.27
2023-02-18T08:02:40.255Z,6.15
2023-02-18T08:05:10.826Z,6.45
2023-02-18T08:07:49.303Z,6.57
2023-02-18T08:10:17.671Z,6.31
2023-02-18T08:12:44.305Z,6.48
2023-02-18T08:15:10.981Z,6.83
2023-02-18T08:17:37.995Z,6.83
2023-02-18T08:20:05.351Z,7.06
2023-02-18T08:22:39.627Z,7.09
2023-02-18T08:25:06.707Z,7.16
2023-02-18T08:27:36.313Z,7.24
2023-02-18T08:32:40.662Z,7.38
2023-02-18T08:35:07.828Z,7.42
2023-02-18T08:37:53.145Z,7.43
2023-02-18T08:40:20.965Z,7.69
2023-02-18T08:42:47.573Z,7.86
2023-02-18T08:45:29.108Z,8.02
2023-02-18T08:48:19.176Z,7.95
2023-02-18T08:50:52.778Z,8.06
2023-02-18T08:53:25.729Z,8.09
2023-02-18T08:55:59.679Z,8.05
2023-02-18T08:58:29.074Z,8.16
2023-02-18T09:01:02.452Z,8.24
2023-02-18T09:03:29.152Z,8.31
2023-02-18T09:05:57.110Z,8.39
2023-02-18T09:08:28.316Z,8.48
2023-02-18T09:11:05.856Z,8.59
2023-02-18T09:13:33.472Z,8.66
2023-02-18T09:16:06.551Z,8.71
2023-02-18T09:18:36.327Z,8.89
2023-02-18T09:21:12.493Z,9.00
2023-02-18T09:23:39.891Z,9.08
2023-02-18T09:26:08.440Z,9.17
2023-02-18T09:28:35.948Z,9.26
2023-02-18T09:31:12.763Z,9.34
2023-02-18T09:33:45.743Z,9.42
2023-02-18T09:36:12.705Z,9.74
2023-02-18T09:38:39.278Z,9.89
2023-02-18T09:41:32.828Z,10.24
2023-02-18T09:44:11.870Z,10.14
2023-02-18T09:47:05.091Z,10.23
2023-02-18T09:49:38.231Z,10.41
2023-02-18T09:52:27.806Z,10.45
2023-02-18T09:54:54.762Z,10.63
2023-02-18T09:58:14.170Z,10.78
2023-02-18T10:00:56.633Z,10.72
2023-02-18T10:03:36.080Z,10.82
2023-02-18T10:06:32.784Z,10.81
2023-02-18T10:09:06.439Z,10.81
2023-02-18T10:11:40.816Z,10.95
2023-02-18T10:14:12.523Z,11.03
2023-02-18T10:16:46.674Z,11.20
2023-02-18T10:19:44.822Z,10.96
2023-02-18T10:22:24.920Z,11.12
2023-02-18T10:25:10.612Z,11.09
2023-02-18T10:27:49.680Z,11.16
2023-02-18T10:30:32.632Z,11.33
2023-02-18T10:33:36.418Z,11.31
2023-02-18T10:36:38.166Z,11.29
2023-02-18T10:40:06.299Z,11.38
2023-02-18T10:42:38.906Z,11.59
2023-02-18T10:45:40.774Z,11.60
2023-02-18T10:48:36.291Z,11.53
2023-02-18T10:51:14.821Z,11.47
2023-02-18T10:53:51.938Z,11.58
2023-02-18T10:56:55.642Z,11.67
2023-02-18T10:59:34.618Z,11.74
2023-02-18T11:02:15.970Z,11.65
2023-02-18T11:04:55.565Z,11.76
2023-02-18T11:07:32.540Z,11.70
2023-02-18T11:10:02.952Z,11.74
2023-02-18T11:12:47.610Z,11.72
2023-02-18T11:15:26.720Z,11.72
2023-02-18T11:18:29.338Z,11.77
2023-02-18T11:21:02.703Z,11.89
2023-02-18T11:23:45.967Z,11.87
2023-02-18T11:26:19.000Z,12.09
2023-02-18T11:28:51.232Z,12.10
2023-02-18T11:31:39.467Z,12.06
2023-02-18T11:34:06.917Z,11.99
2023-02-18T11:36:36.719Z,12.08
2023-02-18T11:39:28.728Z,12.02
2023-02-18T11:42:02.349Z,12.12
2023-02-18T11:45:05.524Z,12.08
2023-02-18T11:47:42.572Z,12.17
2023-02-18T11:50:09.443Z,12.23
2023-02-18T11:52:50.959Z,12.30
2023-02-18T11:55:32.492Z,12.20
2023-02-18T11:58:10.498Z,12.22
2023-02-18T12:00:42.525Z,12.40
2023-02-18T12:03:40.030Z,12.26
2023-02-18T12:06:18.432Z,12.38
2023-02-18T12:09:10.739Z,12.61
2023-02-18T12:11:41.094Z,12.52
2023-02-18T12:14:28.152Z,12.41
2023-02-18T12:17:03.568Z,12.61
2023-02-18T12:19:37.605Z,12.57
2023-02-18T12:22:12.959Z,12.80
2023-02-18T12:25:16.607Z,12.88
2023-02-18T12:28:12.445Z,12.83
2023-02-18T12:31:11.174Z,12.67
2023-02-18T12:34:19.339Z,12.90
2023-02-18T12:36:58.486Z,12.92
2023-02-18T12:39:46.507Z,12.95
2023-02-18T12:42:39.456Z,13.01
2023-02-18T12:45:52.144Z,13.01
2023-02-18T12:48:58.493Z,13.00
2023-02-18T12:54:52.568Z,13.02
2023-02-18T12:57:43.575Z,12.78
2023-02-18T13:00:38.612Z,12.73
2023-02-18T13:03:42.873Z,12.92
2023-02-18T13:06:24.007Z,13.04
2023-02-18T13:09:04.993Z,12.91
2023-02-18T13:11:42.987Z,12.91
2023-02-18T13:14:22.191Z,12.98
2023-02-18T13:17:06.137Z,12.89
2023-02-18T13:19:57.161Z,12.85
2023-02-18T13:22:27.297Z,12.84
2023-02-18T13:24:59.244Z,12.96
2023-02-18T13:27:52.905Z,12.97
2023-02-18T13:30:43.647Z,13.40
2023-02-18T13:33:47.631Z,13.30
2023-02-18T13:39:40.029Z,13.33
2023-02-18T13:42:30.525Z,13.30
2023-02-18T13:44:57.123Z,13.53
2023-02-18T13:48:00.232Z,13.40
2023-02-18T13:50:38.885Z,13.19
2023-02-18T13:53:10.380Z,13.22
2023-02-18T13:55:55.656Z,13.59
2023-02-18T13:58:42.584Z,13.50
2023-02-18T14:01:27.233Z,13.58
2023-02-18T14:03:57.852Z,13.59
2023-02-18T14:06:40.928Z,13.49
2023-02-18T14:09:14.518Z,13.26
2023-02-18T14:11:48.730Z,13.33
2023-02-18T14:14:24.061Z,13.33
2023-02-18T14:17:19.800Z,13.30
2023-02-18T14:20:16.760Z,13.55
2023-02-18T14:22:51.274Z,13.64
2023-02-18T14:25:33.326Z,13.53
2023-02-18T14:28:29.725Z,13.45
2023-02-18T14:30:56.488Z,13.65
2023-02-18T14:33:25.595Z,13.64
2023-02-18T14:36:18.489Z,13.66
2023-02-18T14:39:04.380Z,13.65
2023-02-18T14:41:37.525Z,13.56
2023-02-18T14:44:15.871Z,13.69
2023-02-18T14:47:20.942Z,13.80
2023-02-18T14:50:05.029Z,13.75
2023-02-18T14:52:36.260Z,13.82
2023-02-18T14:55:05.929Z,13.75
2023-02-18T14:57:48.643Z,13.69
2023-02-18T15:00:29.498Z,13.70
2023-02-18T15:02:56.424Z,13.68
2023-02-18T15:05:32.142Z,13.78
2023-02-18T15:08:17.057Z,13.87
2023-02-18T15:11:06.631Z,13.79
2023-02-18T15:13:52.795Z,13.80
2023-02-18T15:16:33.404Z,13.77
2023-02-18T15:19:06.241Z,13.77
2023-02-18T15:21:40.406Z,13.73
2023-02-18T15:24:40.705Z,13.81
2023-02-18T15:27:18.826Z,13.72
2023-02-18T15:29:50.587Z,13.75
2023-02-18T15:32:28.791Z,13.71
2023-02-18T15:35:09.292Z,13.71
2023-02-18T15:37:46.387Z,13.73
2023-02-18T15:40:18.920Z,13.76
2023-02-18T15:43:01.877Z,13.76
2023-02-18T15:45:42.119Z,13.70
2023-02-18T15:48:33.250Z,13.59
2023-02-18T15:51:19.316Z,13.72
2023-02-18T15:53:58.992Z,13.73
2023-02-18T15:56:35.132Z,13.50
2023-02-18T15:59:39.611Z,13.38
2023-02-18T16:02:12.240Z,13.41
2023-02-18T16:04:48.890Z,13.37
2023-02-18T16:07:30.262Z,13.50
2023-02-18T16:10:24.537Z,13.42
2023-02-18T16:13:01.166Z,13.28
2023-02-18T16:15:46.869Z,13.19
2023-02-18T16:18:38.369Z,13.31
2023-02-18T16:21:25.460Z,13.36
2023-02-18T16:24:00.629Z,13.27
2023-02-18T16:26:37.050Z,13.18
2023-02-18T16:29:22.056Z,13.04
2023-02-18T16:31:48.908Z,13.01
2023-02-18T16:34:19.282Z,12.87
2023-02-18T16:36:58.373Z,12.80
2023-02-18T16:39:28.764Z,12.61
2023-02-18T16:42:00.331Z,12.57
2023-02-18T16:44:27.033Z,12.40
2023-02-18T16:46:53.996Z,12.57
2023-02-18T16:52:16.066Z,12.81
2023-02-18T16:54:43.446Z,12.90
2023-02-18T16:57:11.170Z,12.87
2023-02-18T16:59:40.581Z,12.69
2023-02-18T17:02:26.008Z,12.59
2023-02-18T17:04:55.078Z,12.61
2023-02-18T17:07:33.333Z,12.59
2023-02-18T17:10:00.037Z,12.62
2023-02-18T17:12:29.436Z,12.53
2023-02-18T17:14:58.749Z,12.48
2023-02-18T17:17:28.149Z,12.44
2023-02-18T17:19:57.380Z,12.44
2023-02-18T17:22:31.268Z,12.41
2023-02-18T17:25:06.533Z,12.30
2023-02-18T17:27:33.176Z,12.26
2023-02-18T17:30:01.032Z,12.29
2023-02-18T17:32:27.646Z,12.24
2023-02-18T17:34:54.795Z,12.24
2023-02-18T17:37:21.415Z,12.23
2023-02-18T17:39:48.156Z,12.10
2023-02-18T17:42:14.813Z,12.06
2023-02-18T17:44:44.402Z,12.06
2023-02-18T17:47:11.003Z,12.05
2023-02-18T17:49:37.597Z,12.09
2023-02-18T17:52:11.952Z,12.10
2023-02-18T17:54:46.369Z,11.92
2023-02-18T17:57:40.544Z,11.79
2023-02-18T18:00:05.495Z,11.72
2023-02-18T18:02:35.090Z,11.70
2023-02-18T18:05:04.536Z,11.65
2023-02-18T18:07:31.142Z,11.60
2023-02-18T18:10:08.007Z,11.54
2023-02-18T18:12:34.630Z,11.45
2023-02-18T18:15:20.425Z,11.46
2023-02-18T18:17:52.808Z,11.49
2023-02-18T18:20:26.902Z,11.33
2023-02-18T18:22:55.360Z,11.19
2023-02-18T18:25:29.985Z,11.04
2023-02-18T18:30:46.744Z,10.97
2023-02-18T18:33:14.998Z,10.95
2023-02-18T18:35:52.992Z,11.09
2023-02-18T18:38:28.252Z,11.31
2023-02-18T18:41:11.411Z,11.20
2023-02-18T18:43:42.361Z,11.00
2023-02-18T18:46:13.783Z,10.74
2023-02-18T18:48:43.256Z,10.55
2023-02-18T18:51:26.064Z,10.54
2023-02-18T18:53:52.616Z,10.58
2023-02-18T18:58:59.602Z,10.51
2023-02-18T19:01:26.412Z,10.43
2023-02-18T19:03:56.651Z,10.40
2023-02-18T19:06:23.381Z,10.42
2023-02-18T19:08:50.069Z,10.43
2023-02-18T19:11:19.997Z,10.59
2023-02-18T19:14:21.398Z,10.73
2023-02-18T19:16:50.474Z,10.66
2023-02-18T19:19:26.208Z,10.77
2023-02-18T19:21:56.499Z,10.76
2023-02-18T19:24:32.094Z,10.66
2023-02-18T19:26:58.864Z,10.76
2023-02-18T19:29:25.684Z,10.67
2023-02-18T19:31:56.139Z,10.62
2023-02-18T19:34:31.799Z,10.48
2023-02-18T19:37:04.033Z,10.43
2023-02-18T19:39:30.693Z,10.33
2023-02-18T19:42:03.170Z,10.30
2023-02-18T19:44:44.262Z,10.23
2023-02-18T19:47:25.893Z,10.21
2023-02-18T19:49:58.965Z,10.34
2023-02-18T19:52:25.932Z,10.20
2023-02-18T19:55:01.222Z,10.12
2023-02-18T19:57:27.837Z,10.05
2023-02-18T20:00:12.795Z,10.02
2023-02-18T20:02:51.401Z,10.00
2023-02-18T20:05:19.092Z,10.10
2023-02-18T20:07:49.624Z,9.76
2023-02-18T20:10:18.410Z,9.54
2023-02-18T20:12:59.832Z,9.44
2023-02-18T20:15:34.018Z,9.26
2023-02-18T20:18:04.990Z,9.11
2023-02-18T20:20:32.361Z,9.18
2023-02-18T20:23:00.775Z,9.22
2023-02-18T20:25:27.412Z,9.29
2023-02-18T20:28:00.884Z,9.40
2023-02-18T20:33:21.339Z,9.20
2023-02-18T20:35:58.289Z,9.16
2023-02-18T20:38:30.302Z,9.13
2023-02-18T20:41:37.026Z,9.16
2023-02-18T20:44:03.707Z,9.10
2023-02-18T20:46:30.735Z,9.03
2023-02-18T20:49:18.298Z,8.94
2023-02-18T20:51:45.197Z,8.94
2023-02-18T20:54:24.144Z,8.93
2023-02-18T20:56:57.822Z,8.91
2023-02-18T20:59:34.800Z,8.90
2023-02-18T21:02:07.113Z,8.89
2023-02-18T21:04:43.592Z,8.82
2023-02-18T21:07:12.507Z,8.97
2023-02-18T21:09:42.219Z,9.09
2023-02-18T21:12:27.448Z,8.98
2023-02-18T21:15:09.732Z,9.02
2023-02-18T21:17:39.707Z,8.88
2023-02-18T21:20:13.296Z,8.72
2023-02-18T21:22:45.831Z,8.76
2023-02-18T21:25:12.406Z,8.75
2023-02-18T21:30:25.473Z,8.82
2023-02-18T21:33:10.687Z,8.94
2023-02-18T21:35:41.172Z,9.02
2023-02-18T21:38:14.910Z,9.03
2023-02-18T21:40:46.584Z,8.92
2023-02-18T21:43:13.414Z,8.91
2023-02-18T21:45:46.485Z,8.85
2023-02-18T21:48:15.881Z,9.02
2023-02-18T21:50:50.460Z,9.09
2023-02-18T21:53:21.953Z,9.17
2023-02-18T21:56:03.443Z,9.26
2023-02-18T21:58:33.289Z,9.46
2023-02-18T22:01:05.734Z,9.57
2023-02-18T22:03:36.304Z,9.87
2023-02-18T22:06:03.024Z,9.96
2023-02-18T22:11:11.368Z,10.16
2023-02-18T22:13:45.190Z,10.14
2023-02-18T22:16:12.529Z,10.26
2023-02-18T22:18:39.118Z,10.35
2023-02-18T22:21:12.885Z,10.43
2023-02-18T22:23:42.503Z,10.50
2023-02-18T22:26:13.437Z,10.56
2023-02-18T22:28:40.053Z,10.59
2023-02-18T22:31:11.948Z,10.56
2023-02-18T22:33:53.365Z,10.64
2023-02-18T22:36:27.721Z,10.51
2023-02-18T22:38:54.541Z,10.65
2023-02-18T22:41:31.314Z,10.73
2023-02-18T22:44:00.554Z,10.64
2023-02-18T22:46:31.785Z,10.76
2023-02-18T22:49:04.632Z,10.78
2023-02-18T22:51:39.712Z,10.80
2023-02-18T22:54:10.880Z,10.84
2023-02-18T22:56:46.709Z,10.82
2023-02-18T22:59:18.339Z,10.89
2023-02-18T23:01:49.905Z,10.84
2023-02-18T23:04:18.771Z,11.06
2023-02-18T23:06:52.093Z,10.87
2023-02-18T23:09:22.937Z,10.90
2023-02-18T23:11:56.637Z,10.81
2023-02-18T23:14:23.900Z,10.73
2023-02-18T23:17:09.424Z,10.76
2023-02-18T23:19:37.098Z,10.85
2023-02-18T23:22:06.117Z,10.79
2023-02-18T23:24:34.694Z,10.86
2023-02-18T23:27:03.742Z,10.76
2023-02-18T23:29:30.454Z,10.74
2023-02-18T23:31:57.037Z,10.79
2023-02-18T23:34:25.579Z,10.78
2023-02-18T23:36:54.809Z,10.74
2023-02-18T23:39:27.077Z,10.78
2023-02-18T23:41:53.899Z,10.74
2023-02-18T23:44:27.458Z,10.81
2023-02-18T23:47:00.938Z,10.81
2023-02-18T23:49:31.705Z,10.79
2023-02-18T23:52:04.059Z,10.84
2023-02-18T23:54:33.846Z,10.75
2023-02-18T23:57:00.472Z,10.74
2023-02-18T23:59:27.153Z,10.70
